TimePST,TemperatureF,Dew PointF,Humidity,Sea Level PressureIn,VisibilityMPH,Wind Direction,Wind SpeedMPH,Gust SpeedMPH,PrecipitationIn,Events,Conditions,WindDirDegrees,DateUTC
12:10 AM,41.0,39.2,93,29.94,9.0,Calm,Calm,-,N/A,,Mostly Cloudy,0,2012-11-16 08:10:00
12:24 AM,41.0,41.0,100,29.94,9.0,Calm,Calm,-,N/A,,Mostly Cloudy,0,2012-11-16 08:24:00
12:33 AM,41.0,41.0,100,29.94,8.0,Calm,Calm,-,N/A,,Mostly Cloudy,0,2012-11-16 08:33:00
12:56 AM,39.9,39.9,100,29.94,7.0,Calm,Calm,-,N/A,,Mostly Cloudy,0,2012-11-16 08:56:00
1:56 AM,43.0,41.0,93,29.93,7.0,Calm,Calm,-,N/A,,Overcast,0,2012-11-16 09:56:00
2:56 AM,43.0,42.1,97,29.93,4.0,Calm,Calm,-,N/A,,Overcast,0,2012-11-16 10:56:00
3:24 AM,42.8,42.8,100,29.93,2.5,Calm,Calm,-,N/A,,Overcast,0,2012-11-16 11:24:00
3:56 AM,43.0,43.0,100,29.93,2.0,Calm,Calm,-,N/A,,Overcast,0,2012-11-16 11:56:00
4:11 AM,42.8,42.8,100,29.92,1.8,Calm,Calm,-,N/A,,Overcast,0,2012-11-16 12:11:00
4:28 AM,42.8,42.8,100,29.92,1.2,Calm,Calm,-,N/A,,Overcast,0,2012-11-16 12:28:00
4:47 AM,42.8,42.8,100,29.92,0.8,Calm,Calm,-,N/A,,Mist,0,2012-11-16 12:47:00
4:56 AM,43.0,43.0,100,29.93,0.8,Calm,Calm,-,N/A,,Mist,0,2012-11-16 12:56:00
5:56 AM,43.0,43.0,100,29.93,1.2,SSW,3.5,-,N/A,,Overcast,210,2012-11-16 13:56:00
5:59 AM,42.8,42.8,100,29.93,2.0,SW,6.9,-,N/A,,Overcast,220,2012-11-16 13:59:00
6:08 AM,42.8,42.8,100,29.93,4.0,SSE,5.8,-,N/A,,Overcast,160,2012-11-16 14:08:00
6:56 AM,44.1,44.1,100,29.93,5.0,SSE,3.5,-,N/A,,Overcast,150,2012-11-16 14:56:00
7:56 AM,44.1,44.1,100,29.94,4.0,SSE,5.8,-,N/A,,Overcast,160,2012-11-16 15:56:00
8:56 AM,45.0,44.1,97,29.93,2.5,Calm,Calm,-,N/A,,Overcast,0,2012-11-16 16:56:00
9:56 AM,46.9,45.0,93,29.92,5.0,Calm,Calm,-,N/A,,Mostly Cloudy,0,2012-11-16 17:56:00
10:56 AM,51.1,45.0,80,29.92,10.0,Calm,Calm,-,N/A,,Mostly Cloudy,0,2012-11-16 18:56:00
11:56 AM,50.0,46.0,86,29.89,10.0,ENE,5.8,-,N/A,,Overcast,70,2012-11-16 19:56:00
12:56 PM,51.1,46.9,86,29.87,10.0,ENE,3.5,-,N/A,,Mostly Cloudy,70,2012-11-16 20:56:00
1:56 PM,52.0,46.9,83,29.86,10.0,Calm,Calm,-,N/A,,Mostly Cloudy,0,2012-11-16 21:56:00
2:56 PM,53.1,46.9,80,29.84,10.0,Calm,Calm,-,N/A,,Mostly Cloudy,0,2012-11-16 22:56:00
3:56 PM,52.0,48.0,86,29.83,10.0,ENE,3.5,-,N/A,,Overcast,60,2012-11-16 23:56:00
4:56 PM,51.1,48.0,89,29.82,10.0,Calm,Calm,-,N/A,,Overcast,0,2012-11-17 00:56:00
5:56 PM,50.0,46.9,89,29.81,10.0,Calm,Calm,-,N/A,,Overcast,0,2012-11-17 01:56:00
6:56 PM,48.0,46.9,96,29.79,10.0,Calm,Calm,-,N/A,,Overcast,0,2012-11-17 02:56:00
7:56 PM,46.0,45.0,96,29.78,6.0,Calm,Calm,-,N/A,,Mostly Cloudy,0,2012-11-17 03:56:00
8:56 PM,45.0,45.0,100,29.78,5.0,Calm,Calm,-,N/A,,Partly Cloudy,0,2012-11-17 04:56:00
9:09 PM,42.8,42.8,100,29.76,1.5,ESE,3.5,-,N/A,,Partly Cloudy,110,2012-11-17 05:09:00
9:12 PM,42.8,42.8,100,29.76,0.8,ESE,5.8,-,N/A,,Partly Cloudy,110,2012-11-17 05:12:00
9:21 PM,42.8,42.8,100,29.77,1.5,ESE,4.6,-,N/A,,Scattered Clouds,120,2012-11-17 05:21:00
9:56 PM,43.0,43.0,100,29.77,4.0,Calm,Calm,-,N/A,,Clear,0,2012-11-17 05:56:00
10:21 PM,41.0,41.0,100,29.75,2.0,Calm,Calm,-,N/A,,Clear,0,2012-11-17 06:21:00
10:28 PM,42.8,42.8,100,29.75,1.5,Calm,Calm,-,N/A,,Clear,0,2012-11-17 06:28:00
10:36 PM,42.8,42.8,100,29.75,3.0,Calm,Calm,-,N/A,,Partly Cloudy,0,2012-11-17 06:36:00
10:56 PM,43.0,43.0,100,29.75,3.0,Calm,Calm,-,N/A,,Mostly Cloudy,0,2012-11-17 06:56:00
11:09 PM,42.8,42.8,100,29.74,2.0,Calm,Calm,-,N/A,,Mostly Cloudy,0,2012-11-17 07:09:00
11:13 PM,41.0,41.0,100,29.74,1.2,Calm,Calm,-,N/A,,Mostly Cloudy,0,2012-11-17 07:13:00
11:34 PM,42.8,42.8,100,29.73,2.0,Calm,Calm,-,N/A,,Scattered Clouds,0,2012-11-17 07:34:00
11:54 PM,41.0,41.0,100,29.72,1.2,Calm,Calm,-,N/A,,Scattered Clouds,0,2012-11-17 07:54:00
11:56 PM,41.0,41.0,100,29.73,1.2,SE,3.5,-,N/A,,Scattered Clouds,140,2012-11-17 07:56:00